sensor_id;sensor_type;location;lat;lon;timestamp;P1;durP1;ratioP1;P2;durP2;ratioP2
15643;SDS011;7921;43.586;1.408;2022-07-10T00:00:24;2.35;;;1.73;;
15643;SDS011;7921;43.586;1.408;2022-07-10T00:02:50;1.90;;;1.80;;
15643;SDS011;7921;43.586;1.408;2022-07-10T00:05:17;1.70;;;1.60;;
15643;SDS011;7921;43.586;1.408;2022-07-10T00:07:43;1.65;;;1.55;;
15643;SDS011;7921;43.586;1.408;2022-07-10T00:10:09;1.92;;;1.70;;
15643;SDS011;7921;43.586;1.408;2022-07-10T00:12:35;2.10;;;1.90;;
15643;SDS011;7921;43.586;1.408;2022-07-10T00:15:00;2.08;;;1.48;;
15643;SDS011;7921;43.586;1.408;2022-07-10T00:17:26;2.63;;;1.60;;
15643;SDS011;7921;43.586;1.408;2022-07-10T00:19:51;2.53;;;1.73;;
15643;SDS011;7921;43.586;1.408;2022-07-10T00:22:16;5.18;;;1.98;;
15643;SDS011;7921;43.586;1.408;2022-07-10T00:24:42;3.78;;;1.70;;
15643;SDS011;7921;43.586;1.408;2022-07-10T00:27:07;2.17;;;1.90;;
15643;SDS011;7921;43.586;1.408;2022-07-10T00:29:33;3.83;;;2.17;;
15643;SDS011;7921;43.586;1.408;2022-07-10T00:31:58;2.10;;;1.80;;
15643;SDS011;7921;43.586;1.408;2022-07-10T00:34:23;1.70;;;1.60;;
15643;SDS011;7921;43.586;1.408;2022-07-10T00:36:49;4.20;;;1.92;;
15643;SDS011;7921;43.586;1.408;2022-07-10T00:39:14;1.77;;;1.63;;
15643;SDS011;7921;43.586;1.408;2022-07-10T00:41:39;2.03;;;1.83;;
15643;SDS011;7921;43.586;1.408;2022-07-10T00:44:05;2.00;;;1.90;;
15643;SDS011;7921;43.586;1.408;2022-07-10T00:46:31;2.38;;;2.17;;
15643;SDS011;7921;43.586;1.408;2022-07-10T00:48:57;3.30;;;2.97;;
15643;SDS011;7921;43.586;1.408;2022-07-10T00:51:26;2.72;;;2.53;;
15643;SDS011;7921;43.586;1.408;2022-07-10T00:53:53;2.30;;;2.20;;
15643;SDS011;7921;43.586;1.408;2022-07-10T00:56:28;3.25;;;2.03;;
15643;SDS011;7921;43.586;1.408;2022-07-10T00:58:54;2.03;;;1.75;;
15643;SDS011;7921;43.586;1.408;2022-07-10T01:01:19;2.17;;;2.00;;
15643;SDS011;7921;43.586;1.408;2022-07-10T01:03:47;2.10;;;1.90;;
15643;SDS011;7921;43.586;1.408;2022-07-10T01:06:13;2.20;;;2.00;;
15643;SDS011;7921;43.586;1.408;2022-07-10T01:08:39;2.38;;;2.17;;
15643;SDS011;7921;43.586;1.408;2022-07-10T01:11:04;2.47;;;2.20;;
15643;SDS011;7921;43.586;1.408;2022-07-10T01:13:30;2.50;;;1.98;;
15643;SDS011;7921;43.586;1.408;2022-07-10T01:15:56;2.13;;;1.95;;
15643;SDS011;7921;43.586;1.408;2022-07-10T01:18:22;2.33;;;2.13;;
15643;SDS011;7921;43.586;1.408;2022-07-10T01:20:51;2.40;;;1.92;;
15643;SDS011;7921;43.586;1.408;2022-07-10T01:23:17;3.63;;;1.98;;
15643;SDS011;7921;43.586;1.408;2022-07-10T01:25:42;2.20;;;2.00;;
15643;SDS011;7921;43.586;1.408;2022-07-10T01:28:08;2.13;;;1.92;;
15643;SDS011;7921;43.586;1.408;2022-07-10T01:30:33;2.20;;;2.00;;
15643;SDS011;7921;43.586;1.408;2022-07-10T01:32:59;3.25;;;1.83;;
15643;SDS011;7921;43.586;1.408;2022-07-10T01:35:24;2.28;;;2.08;;
15643;SDS011;7921;43.586;1.408;2022-07-10T01:37:49;2.25;;;2.05;;
15643;SDS011;7921;43.586;1.408;2022-07-10T01:40:15;2.42;;;2.22;;
15643;SDS011;7921;43.586;1.408;2022-07-10T01:42:40;2.65;;;1.63;;
15643;SDS011;7921;43.586;1.408;2022-07-10T01:45:08;1.90;;;1.80;;
15643;SDS011;7921;43.586;1.408;2022-07-10T01:47:34;3.33;;;1.90;;
15643;SDS011;7921;43.586;1.408;2022-07-10T01:50:00;2.00;;;1.77;;
15643;SDS011;7921;43.586;1.408;2022-07-10T01:52:26;2.13;;;1.65;;
15643;SDS011;7921;43.586;1.408;2022-07-10T01:54:51;1.70;;;1.60;;
15643;SDS011;7921;43.586;1.408;2022-07-10T01:57:16;1.98;;;1.80;;
15643;SDS011;7921;43.586;1.408;2022-07-10T01:59:42;3.78;;;1.60;;
15643;SDS011;7921;43.586;1.408;2022-07-10T02:02:07;2.08;;;1.70;;
15643;SDS011;7921;43.586;1.408;2022-07-10T02:04:33;1.88;;;1.60;;
15643;SDS011;7921;43.586;1.408;2022-07-10T02:07:12;1.67;;;1.40;;
15643;SDS011;7921;43.586;1.408;2022-07-10T02:09:41;1.60;;;1.50;;
15643;SDS011;7921;43.586;1.408;2022-07-10T02:12:08;1.98;;;1.75;;
15643;SDS011;7921;43.586;1.408;2022-07-10T02:14:35;1.70;;;1.60;;
15643;SDS011;7921;43.586;1.408;2022-07-10T02:17:01;2.95;;;1.70;;
15643;SDS011;7921;43.586;1.408;2022-07-10T02:19:26;1.95;;;1.85;;
15643;SDS011;7921;43.586;1.408;2022-07-10T02:21:52;2.88;;;2.05;;
15643;SDS011;7921;43.586;1.408;2022-07-10T02:24:17;4.35;;;1.85;;
15643;SDS011;7921;43.586;1.408;2022-07-10T02:26:43;1.80;;;1.70;;
15643;SDS011;7921;43.586;1.408;2022-07-10T02:29:08;1.80;;;1.70;;
15643;SDS011;7921;43.586;1.408;2022-07-10T02:31:33;2.83;;;1.80;;
15643;SDS011;7921;43.586;1.408;2022-07-10T02:34:00;2.05;;;1.75;;
15643;SDS011;7921;43.586;1.408;2022-07-10T02:36:26;3.67;;;1.83;;
15643;SDS011;7921;43.586;1.408;2022-07-10T02:38:51;3.63;;;1.77;;
15643;SDS011;7921;43.586;1.408;2022-07-10T02:41:16;3.85;;;1.98;;
15643;SDS011;7921;43.586;1.408;2022-07-10T02:43:42;2.50;;;1.60;;
15643;SDS011;7921;43.586;1.408;2022-07-10T02:46:07;5.20;;;2.08;;
15643;SDS011;7921;43.586;1.408;2022-07-10T02:48:32;1.88;;;1.48;;
15643;SDS011;7921;43.586;1.408;2022-07-10T02:50:58;1.73;;;1.63;;
15643;SDS011;7921;43.586;1.408;2022-07-10T02:53:23;2.15;;;1.60;;
15643;SDS011;7921;43.586;1.408;2022-07-10T02:55:49;2.28;;;1.80;;
15643;SDS011;7921;43.586;1.408;2022-07-10T02:58:14;2.95;;;1.50;;
15643;SDS011;7921;43.586;1.408;2022-07-10T03:00:40;3.83;;;1.70;;
15643;SDS011;7921;43.586;1.408;2022-07-10T03:03:06;3.53;;;1.70;;
15643;SDS011;7921;43.586;1.408;2022-07-10T03:05:32;2.85;;;1.90;;
15643;SDS011;7921;43.586;1.408;2022-07-10T03:07:58;1.63;;;1.52;;
15643;SDS011;7921;43.586;1.408;2022-07-10T03:10:23;1.92;;;1.70;;
15643;SDS011;7921;43.586;1.408;2022-07-10T03:12:49;2.10;;;1.65;;
15643;SDS011;7921;43.586;1.408;2022-07-10T03:15:14;2.60;;;1.55;;
15643;SDS011;7921;43.586;1.408;2022-07-10T03:17:40;3.00;;;1.70;;
15643;SDS011;7921;43.586;1.408;2022-07-10T03:20:06;1.80;;;1.70;;
15643;SDS011;7921;43.586;1.408;2022-07-10T03:22:32;2.47;;;1.83;;
15643;SDS011;7921;43.586;1.408;2022-07-10T03:24:57;2.85;;;1.73;;
15643;SDS011;7921;43.586;1.408;2022-07-10T03:27:23;2.17;;;1.80;;
15643;SDS011;7921;43.586;1.408;2022-07-10T03:29:48;1.77;;;1.63;;
15643;SDS011;7921;43.586;1.408;2022-07-10T03:32:14;3.20;;;1.50;;
15643;SDS011;7921;43.586;1.408;2022-07-10T03:34:39;1.85;;;1.60;;
15643;SDS011;7921;43.586;1.408;2022-07-10T03:37:05;2.25;;;1.50;;
15643;SDS011;7921;43.586;1.408;2022-07-10T03:39:30;3.78;;;1.90;;
15643;SDS011;7921;43.586;1.408;2022-07-10T03:41:56;1.80;;;1.70;;
15643;SDS011;7921;43.586;1.408;2022-07-10T03:44:21;4.35;;;1.90;;
15643;SDS011;7921;43.586;1.408;2022-07-10T03:46:47;1.98;;;1.77;;
15643;SDS011;7921;43.586;1.408;2022-07-10T03:49:12;2.33;;;1.67;;
15643;SDS011;7921;43.586;1.408;2022-07-10T03:51:38;3.92;;;1.70;;
15643;SDS011;7921;43.586;1.408;2022-07-10T03:54:03;2.00;;;1.83;;
15643;SDS011;7921;43.586;1.408;2022-07-10T03:56:28;2.05;;;1.90;;
15643;SDS011;7921;43.586;1.408;2022-07-10T03:59:12;2.53;;;2.17;;
15643;SDS011;7921;43.586;1.408;2022-07-10T04:01:38;2.05;;;1.80;;
15643;SDS011;7921;43.586;1.408;2022-07-10T04:04:03;2.55;;;1.65;;
15643;SDS011;7921;43.586;1.408;2022-07-10T04:06:28;3.53;;;1.70;;
15643;SDS011;7921;43.586;1.408;2022-07-10T04:08:54;1.60;;;1.50;;
15643;SDS011;7921;43.586;1.408;2022-07-10T04:11:19;2.45;;;1.80;;
15643;SDS011;7921;43.586;1.408;2022-07-10T04:13:45;2.95;;;1.85;;
15643;SDS011;7921;43.586;1.408;2022-07-10T04:16:10;3.20;;;1.92;;
15643;SDS011;7921;43.586;1.408;2022-07-10T04:18:38;1.80;;;1.70;;
15643;SDS011;7921;43.586;1.408;2022-07-10T04:21:04;2.22;;;1.88;;
15643;SDS011;7921;43.586;1.408;2022-07-10T04:23:30;1.70;;;1.60;;
15643;SDS011;7921;43.586;1.408;2022-07-10T04:25:56;2.33;;;1.92;;
15643;SDS011;7921;43.586;1.408;2022-07-10T04:28:21;1.90;;;1.80;;
15643;SDS011;7921;43.586;1.408;2022-07-10T04:30:47;1.70;;;1.60;;
15643;SDS011;7921;43.586;1.408;2022-07-10T04:33:12;2.08;;;1.77;;
15643;SDS011;7921;43.586;1.408;2022-07-10T04:35:38;3.55;;;1.60;;
15643;SDS011;7921;43.586;1.408;2022-07-10T04:38:03;1.70;;;1.60;;
15643;SDS011;7921;43.586;1.408;2022-07-10T04:40:28;2.75;;;2.20;;
15643;SDS011;7921;43.586;1.408;2022-07-10T04:42:54;2.92;;;1.85;;
15643;SDS011;7921;43.586;1.408;2022-07-10T04:45:19;2.92;;;2.00;;
15643;SDS011;7921;43.586;1.408;2022-07-10T04:47:44;1.90;;;1.80;;
15643;SDS011;7921;43.586;1.408;2022-07-10T04:50:10;1.92;;;1.70;;
15643;SDS011;7921;43.586;1.408;2022-07-10T04:52:35;2.15;;;2.05;;
15643;SDS011;7921;43.586;1.408;2022-07-10T04:55:01;2.45;;;1.90;;
15643;SDS011;7921;43.586;1.408;2022-07-10T04:57:26;2.03;;;1.80;;
15643;SDS011;7921;43.586;1.408;2022-07-10T04:59:52;2.45;;;2.25;;
15643;SDS011;7921;43.586;1.408;2022-07-10T05:02:18;1.88;;;1.77;;
15643;SDS011;7921;43.586;1.408;2022-07-10T05:04:44;2.20;;;2.00;;
15643;SDS011;7921;43.586;1.408;2022-07-10T05:07:09;2.42;;;2.22;;
15643;SDS011;7921;43.586;1.408;2022-07-10T05:09:34;2.75;;;2.55;;
15643;SDS011;7921;43.586;1.408;2022-07-10T05:12:00;2.47;;;2.28;;
15643;SDS011;7921;43.586;1.408;2022-07-10T05:14:25;2.70;;;2.30;;
15643;SDS011;7921;43.586;1.408;2022-07-10T05:16:50;3.20;;;2.00;;
15643;SDS011;7921;43.586;1.408;2022-07-10T05:19:16;3.00;;;2.13;;
15643;SDS011;7921;43.586;1.408;2022-07-10T05:21:41;3.33;;;2.17;;
15643;SDS011;7921;43.586;1.408;2022-07-10T05:24:07;3.17;;;2.10;;
15643;SDS011;7921;43.586;1.408;2022-07-10T05:26:32;2.15;;;1.98;;
15643;SDS011;7921;43.586;1.408;2022-07-10T05:28:57;2.45;;;2.08;;
15643;SDS011;7921;43.586;1.408;2022-07-10T05:31:23;2.17;;;1.92;;
15643;SDS011;7921;43.586;1.408;2022-07-10T05:33:48;3.05;;;2.20;;
15643;SDS011;7921;43.586;1.408;2022-07-10T05:36:14;2.22;;;2.05;;
15643;SDS011;7921;43.586;1.408;2022-07-10T05:38:39;5.57;;;2.30;;
15643;SDS011;7921;43.586;1.408;2022-07-10T05:41:04;54.03;;;7.65;;
15643;SDS011;7921;43.586;1.408;2022-07-10T05:43:30;3.20;;;2.08;;
15643;SDS011;7921;43.586;1.408;2022-07-10T05:45:55;3.97;;;2.13;;
15643;SDS011;7921;43.586;1.408;2022-07-10T05:48:21;2.40;;;2.20;;
15643;SDS011;7921;43.586;1.408;2022-07-10T05:50:46;3.17;;;2.10;;
15643;SDS011;7921;43.586;1.408;2022-07-10T05:53:11;2.25;;;2.08;;
15643;SDS011;7921;43.586;1.408;2022-07-10T05:55:37;2.47;;;2.28;;
15643;SDS011;7921;43.586;1.408;2022-07-10T05:58:02;2.88;;;2.40;;
15643;SDS011;7921;43.586;1.408;2022-07-10T06:00:27;4.18;;;2.40;;
15643;SDS011;7921;43.586;1.408;2022-07-10T06:02:53;3.83;;;2.35;;
15643;SDS011;7921;43.586;1.408;2022-07-10T06:05:18;4.38;;;2.40;;
15643;SDS011;7921;43.586;1.408;2022-07-10T06:07:44;4.63;;;2.55;;
15643;SDS011;7921;43.586;1.408;2022-07-10T06:10:09;3.72;;;2.10;;
15643;SDS011;7921;43.586;1.408;2022-07-10T06:12:35;5.25;;;2.30;;
15643;SDS011;7921;43.586;1.408;2022-07-10T06:15:02;2.97;;;2.20;;
15643;SDS011;7921;43.586;1.408;2022-07-10T06:17:28;2.92;;;2.30;;
15643;SDS011;7921;43.586;1.408;2022-07-10T06:19:53;2.08;;;1.88;;
15643;SDS011;7921;43.586;1.408;2022-07-10T06:22:19;5.28;;;2.50;;
15643;SDS011;7921;43.586;1.408;2022-07-10T06:25:00;2.13;;;2.03;;
15643;SDS011;7921;43.586;1.408;2022-07-10T06:27:30;4.93;;;2.40;;
15643;SDS011;7921;43.586;1.408;2022-07-10T06:29:55;9.73;;;2.60;;
15643;SDS011;7921;43.586;1.408;2022-07-10T06:32:21;5.32;;;2.42;;
15643;SDS011;7921;43.586;1.408;2022-07-10T06:34:49;6.97;;;2.55;;
15643;SDS011;7921;43.586;1.408;2022-07-10T06:37:15;3.15;;;2.35;;
15643;SDS011;7921;43.586;1.408;2022-07-10T06:39:40;3.92;;;2.22;;
15643;SDS011;7921;43.586;1.408;2022-07-10T06:42:06;2.42;;;2.20;;
15643;SDS011;7921;43.586;1.408;2022-07-10T06:44:31;3.92;;;2.30;;
15643;SDS011;7921;43.586;1.408;2022-07-10T06:46:57;3.90;;;2.20;;
15643;SDS011;7921;43.586;1.408;2022-07-10T06:49:41;2.00;;;1.90;;
15643;SDS011;7921;43.586;1.408;2022-07-10T06:52:07;3.13;;;2.30;;
15643;SDS011;7921;43.586;1.408;2022-07-10T06:54:33;2.45;;;2.25;;
15643;SDS011;7921;43.586;1.408;2022-07-10T06:56:58;3.35;;;2.30;;
15643;SDS011;7921;43.586;1.408;2022-07-10T06:59:24;2.55;;;2.20;;
15643;SDS011;7921;43.586;1.408;2022-07-10T07:01:49;2.00;;;1.90;;
15643;SDS011;7921;43.586;1.408;2022-07-10T07:04:15;2.22;;;2.03;;
15643;SDS011;7921;43.586;1.408;2022-07-10T07:06:40;2.20;;;2.10;;
15643;SDS011;7921;43.586;1.408;2022-07-10T07:09:05;2.67;;;2.03;;
15643;SDS011;7921;43.586;1.408;2022-07-10T07:11:31;3.88;;;2.20;;
15643;SDS011;7921;43.586;1.408;2022-07-10T07:13:56;3.10;;;1.85;;
15643;SDS011;7921;43.586;1.408;2022-07-10T07:16:21;2.42;;;2.10;;
15643;SDS011;7921;43.586;1.408;2022-07-10T07:19:02;2.38;;;2.17;;
15643;SDS011;7921;43.586;1.408;2022-07-10T07:21:29;2.17;;;1.90;;
15643;SDS011;7921;43.586;1.408;2022-07-10T07:24:14;2.53;;;1.88;;
15643;SDS011;7921;43.586;1.408;2022-07-10T07:26:39;2.22;;;2.00;;
15643;SDS011;7921;43.586;1.408;2022-07-10T07:29:04;2.83;;;1.70;;
15643;SDS011;7921;43.586;1.408;2022-07-10T07:31:30;2.80;;;1.90;;
15643;SDS011;7921;43.586;1.408;2022-07-10T07:33:55;2.30;;;1.80;;
15643;SDS011;7921;43.586;1.408;2022-07-10T07:36:20;1.70;;;1.60;;
15643;SDS011;7921;43.586;1.408;2022-07-10T07:38:46;1.52;;;1.42;;
15643;SDS011;7921;43.586;1.408;2022-07-10T07:41:11;4.10;;;1.83;;
15643;SDS011;7921;43.586;1.408;2022-07-10T07:43:36;2.58;;;1.60;;
15643;SDS011;7921;43.586;1.408;2022-07-10T07:46:02;3.90;;;1.40;;
15643;SDS011;7921;43.586;1.408;2022-07-10T07:48:27;2.47;;;1.75;;
15643;SDS011;7921;43.586;1.408;2022-07-10T07:50:53;2.55;;;1.45;;
15643;SDS011;7921;43.586;1.408;2022-07-10T07:53:18;2.22;;;1.60;;
15643;SDS011;7921;43.586;1.408;2022-07-10T07:55:43;3.28;;;1.60;;
15643;SDS011;7921;43.586;1.408;2022-07-10T07:58:09;1.50;;;1.40;;
15643;SDS011;7921;43.586;1.408;2022-07-10T08:00:34;2.28;;;1.58;;
15643;SDS011;7921;43.586;1.408;2022-07-10T08:03:00;4.75;;;1.38;;
15643;SDS011;7921;43.586;1.408;2022-07-10T08:05:25;1.63;;;1.52;;
15643;SDS011;7921;43.586;1.408;2022-07-10T08:07:55;1.73;;;1.55;;
15643;SDS011;7921;43.586;1.408;2022-07-10T08:10:22;1.55;;;1.45;;
15643;SDS011;7921;43.586;1.408;2022-07-10T08:12:49;1.48;;;1.20;;
15643;SDS011;7921;43.586;1.408;2022-07-10T08:15:16;2.50;;;1.50;;
15643;SDS011;7921;43.586;1.408;2022-07-10T08:17:43;2.70;;;1.40;;
15643;SDS011;7921;43.586;1.408;2022-07-10T08:20:11;2.10;;;1.50;;
15643;SDS011;7921;43.586;1.408;2022-07-10T08:22:37;1.83;;;1.40;;
15643;SDS011;7921;43.586;1.408;2022-07-10T08:25:03;1.90;;;1.27;;
15643;SDS011;7921;43.586;1.408;2022-07-10T08:27:29;1.40;;;1.30;;
15643;SDS011;7921;43.586;1.408;2022-07-10T08:29:54;2.20;;;1.50;;
15643;SDS011;7921;43.586;1.408;2022-07-10T08:32:19;1.73;;;1.60;;
15643;SDS011;7921;43.586;1.408;2022-07-10T08:34:45;3.33;;;1.08;;
15643;SDS011;7921;43.586;1.408;2022-07-10T08:37:10;1.30;;;1.20;;
15643;SDS011;7921;43.586;1.408;2022-07-10T08:39:36;1.38;;;1.20;;
15643;SDS011;7921;43.586;1.408;2022-07-10T08:42:04;1.33;;;1.23;;
15643;SDS011;7921;43.586;1.408;2022-07-10T08:44:29;1.50;;;1.40;;
15643;SDS011;7921;43.586;1.408;2022-07-10T08:46:55;1.60;;;1.50;;
15643;SDS011;7921;43.586;1.408;2022-07-10T08:49:23;1.40;;;1.08;;
15643;SDS011;7921;43.586;1.408;2022-07-10T08:52:01;1.38;;;1.27;;
15643;SDS011;7921;43.586;1.408;2022-07-10T08:54:29;1.65;;;1.30;;
15643;SDS011;7921;43.586;1.408;2022-07-10T08:56:58;1.40;;;1.30;;
15643;SDS011;7921;43.586;1.408;2022-07-10T08:59:25;4.32;;;1.48;;
15643;SDS011;7921;43.586;1.408;2022-07-10T09:01:50;1.30;;;1.20;;
15643;SDS011;7921;43.586;1.408;2022-07-10T09:04:16;1.65;;;1.40;;
15643;SDS011;7921;43.586;1.408;2022-07-10T09:06:43;2.33;;;1.15;;
15643;SDS011;7921;43.586;1.408;2022-07-10T09:09:09;1.63;;;1.35;;
15643;SDS011;7921;43.586;1.408;2022-07-10T09:11:35;1.85;;;1.13;;
15643;SDS011;7921;43.586;1.408;2022-07-10T09:14:03;1.75;;;1.05;;
15643;SDS011;7921;43.586;1.408;2022-07-10T09:16:33;1.60;;;1.17;;
15643;SDS011;7921;43.586;1.408;2022-07-10T09:21:45;3.42;;;1.50;;
15643;SDS011;7921;43.586;1.408;2022-07-10T09:24:11;2.80;;;1.15;;
15643;SDS011;7921;43.586;1.408;2022-07-10T09:26:37;1.17;;;1.08;;
15643;SDS011;7921;43.586;1.408;2022-07-10T09:29:07;1.27;;;1.20;;
15643;SDS011;7921;43.586;1.408;2022-07-10T09:34:19;1.63;;;1.33;;
15643;SDS011;7921;43.586;1.408;2022-07-10T09:36:59;1.15;;;1.05;;
15643;SDS011;7921;43.586;1.408;2022-07-10T09:39:24;1.67;;;1.27;;
15643;SDS011;7921;43.586;1.408;2022-07-10T09:41:49;2.30;;;1.20;;
15643;SDS011;7921;43.586;1.408;2022-07-10T09:44:15;2.08;;;1.20;;
15643;SDS011;7921;43.586;1.408;2022-07-10T09:46:40;1.50;;;1.40;;
15643;SDS011;7921;43.586;1.408;2022-07-10T09:49:10;1.63;;;1.20;;
15643;SDS011;7921;43.586;1.408;2022-07-10T09:51:38;3.78;;;1.27;;
15643;SDS011;7921;43.586;1.408;2022-07-10T09:54:07;1.27;;;1.10;;
15643;SDS011;7921;43.586;1.408;2022-07-10T09:56:38;3.67;;;1.35;;
15643;SDS011;7921;43.586;1.408;2022-07-10T09:59:18;1.27;;;1.17;;
15643;SDS011;7921;43.586;1.408;2022-07-10T10:01:45;1.35;;;1.25;;
15643;SDS011;7921;43.586;1.408;2022-07-10T10:04:11;1.42;;;1.17;;
15643;SDS011;7921;43.586;1.408;2022-07-10T10:06:37;1.55;;;1.00;;
15643;SDS011;7921;43.586;1.408;2022-07-10T10:09:04;1.55;;;1.30;;
15643;SDS011;7921;43.586;1.408;2022-07-10T10:11:41;1.85;;;1.20;;
15643;SDS011;7921;43.586;1.408;2022-07-10T10:14:09;1.20;;;1.10;;
15643;SDS011;7921;43.586;1.408;2022-07-10T10:16:34;2.47;;;1.20;;
15643;SDS011;7921;43.586;1.408;2022-07-10T10:19:00;1.95;;;1.33;;
15643;SDS011;7921;43.586;1.408;2022-07-10T10:21:46;0.95;;;0.95;;
15643;SDS011;7921;43.586;1.408;2022-07-10T10:24:11;1.40;;;1.30;;
15643;SDS011;7921;43.586;1.408;2022-07-10T10:26:38;1.60;;;1.10;;
15643;SDS011;7921;43.586;1.408;2022-07-10T10:29:03;2.28;;;1.10;;
15643;SDS011;7921;43.586;1.408;2022-07-10T10:31:29;1.60;;;1.40;;
15643;SDS011;7921;43.586;1.408;2022-07-10T10:33:56;1.40;;;1.30;;
15643;SDS011;7921;43.586;1.408;2022-07-10T10:39:08;1.50;;;1.10;;
15643;SDS011;7921;43.586;1.408;2022-07-10T10:41:41;2.60;;;1.20;;
15643;SDS011;7921;43.586;1.408;2022-07-10T10:49:18;1.80;;;1.10;;
15643;SDS011;7921;43.586;1.408;2022-07-10T10:52:03;1.48;;;0.95;;
15643;SDS011;7921;43.586;1.408;2022-07-10T10:54:47;1.35;;;1.02;;
15643;SDS011;7921;43.586;1.408;2022-07-10T10:59:56;1.40;;;1.30;;
15643;SDS011;7921;43.586;1.408;2022-07-10T11:02:30;1.77;;;1.00;;
15643;SDS011;7921;43.586;1.408;2022-07-10T11:08:01;1.23;;;1.15;;
15643;SDS011;7921;43.586;1.408;2022-07-10T11:10:28;1.40;;;1.13;;
15643;SDS011;7921;43.586;1.408;2022-07-10T11:15:23;1.13;;;1.00;;
15643;SDS011;7921;43.586;1.408;2022-07-10T11:17:50;1.08;;;1.00;;
15643;SDS011;7921;43.586;1.408;2022-07-10T11:20:15;3.05;;;1.05;;
15643;SDS011;7921;43.586;1.408;2022-07-10T11:25:29;1.30;;;1.20;;
15643;SDS011;7921;43.586;1.408;2022-07-10T11:28:10;2.92;;;1.23;;
15643;SDS011;7921;43.586;1.408;2022-07-10T11:33:11;1.20;;;0.90;;
15643;SDS011;7921;43.586;1.408;2022-07-10T11:35:40;0.93;;;0.90;;
15643;SDS011;7921;43.586;1.408;2022-07-10T11:38:06;1.20;;;1.02;;
15643;SDS011;7921;43.586;1.408;2022-07-10T11:40:35;1.50;;;1.00;;
15643;SDS011;7921;43.586;1.408;2022-07-10T11:43:01;1.15;;;1.05;;
15643;SDS011;7921;43.586;1.408;2022-07-10T11:45:32;1.05;;;0.90;;
15643;SDS011;7921;43.586;1.408;2022-07-10T11:47:59;2.47;;;0.93;;
15643;SDS011;7921;43.586;1.408;2022-07-10T11:50:25;1.98;;;0.90;;
15643;SDS011;7921;43.586;1.408;2022-07-10T11:52:51;1.00;;;0.90;;
15643;SDS011;7921;43.586;1.408;2022-07-10T11:55:18;1.35;;;0.90;;
15643;SDS011;7921;43.586;1.408;2022-07-10T11:57:45;0.88;;;0.88;;
15643;SDS011;7921;43.586;1.408;2022-07-10T12:00:26;1.00;;;0.95;;
15643;SDS011;7921;43.586;1.408;2022-07-10T12:02:54;2.15;;;0.95;;
15643;SDS011;7921;43.586;1.408;2022-07-10T12:05:33;1.70;;;1.00;;
15643;SDS011;7921;43.586;1.408;2022-07-10T12:08:03;1.75;;;1.23;;
15643;SDS011;7921;43.586;1.408;2022-07-10T12:10:30;1.02;;;1.02;;
15643;SDS011;7921;43.586;1.408;2022-07-10T12:13:12;2.00;;;0.93;;
15643;SDS011;7921;43.586;1.408;2022-07-10T12:15:39;1.25;;;1.10;;
15643;SDS011;7921;43.586;1.408;2022-07-10T12:18:29;2.78;;;1.02;;
15643;SDS011;7921;43.586;1.408;2022-07-10T12:20:56;1.13;;;0.93;;
15643;SDS011;7921;43.586;1.408;2022-07-10T12:23:23;1.00;;;1.00;;
15643;SDS011;7921;43.586;1.408;2022-07-10T12:25:49;0.90;;;0.90;;
15643;SDS011;7921;43.586;1.408;2022-07-10T12:28:14;0.70;;;0.70;;
15643;SDS011;7921;43.586;1.408;2022-07-10T12:30:44;1.77;;;1.05;;
15643;SDS011;7921;43.586;1.408;2022-07-10T12:33:18;1.77;;;0.85;;
15643;SDS011;7921;43.586;1.408;2022-07-10T12:35:57;1.33;;;1.17;;
15643;SDS011;7921;43.586;1.408;2022-07-10T12:38:25;1.38;;;1.10;;
15643;SDS011;7921;43.586;1.408;2022-07-10T12:41:05;1.38;;;1.27;;
15643;SDS011;7921;43.586;1.408;2022-07-10T12:43:37;1.92;;;0.95;;
15643;SDS011;7921;43.586;1.408;2022-07-10T12:48:34;1.13;;;0.95;;
15643;SDS011;7921;43.586;1.408;2022-07-10T12:51:22;3.65;;;1.15;;
15643;SDS011;7921;43.586;1.408;2022-07-10T12:53:48;1.17;;;0.90;;
15643;SDS011;7921;43.586;1.408;2022-07-10T12:59:13;1.67;;;1.10;;
15643;SDS011;7921;43.586;1.408;2022-07-10T13:01:40;1.20;;;1.00;;
15643;SDS011;7921;43.586;1.408;2022-07-10T13:04:06;1.63;;;1.08;;
15643;SDS011;7921;43.586;1.408;2022-07-10T13:06:34;1.00;;;0.90;;
15643;SDS011;7921;43.586;1.408;2022-07-10T13:09:01;1.20;;;1.10;;
15643;SDS011;7921;43.586;1.408;2022-07-10T13:11:27;1.20;;;0.90;;
15643;SDS011;7921;43.586;1.408;2022-07-10T13:13:52;1.20;;;1.10;;
15643;SDS011;7921;43.586;1.408;2022-07-10T13:16:17;1.20;;;1.00;;
15643;SDS011;7921;43.586;1.408;2022-07-10T13:18:43;0.93;;;0.93;;
15643;SDS011;7921;43.586;1.408;2022-07-10T13:21:09;0.77;;;0.77;;
15643;SDS011;7921;43.586;1.408;2022-07-10T13:23:36;2.65;;;1.00;;
15643;SDS011;7921;43.586;1.408;2022-07-10T13:26:01;0.95;;;0.90;;
15643;SDS011;7921;43.586;1.408;2022-07-10T13:28:28;0.85;;;0.80;;
15643;SDS011;7921;43.586;1.408;2022-07-10T13:30:54;1.75;;;0.90;;
15643;SDS011;7921;43.586;1.408;2022-07-10T13:33:19;2.90;;;1.02;;
15643;SDS011;7921;43.586;1.408;2022-07-10T13:35:45;0.70;;;0.70;;
15643;SDS011;7921;43.586;1.408;2022-07-10T13:38:10;1.33;;;1.00;;
15643;SDS011;7921;43.586;1.408;2022-07-10T13:40:36;1.10;;;1.00;;
15643;SDS011;7921;43.586;1.408;2022-07-10T13:43:02;1.48;;;0.90;;
15643;SDS011;7921;43.586;1.408;2022-07-10T13:45:28;1.08;;;0.85;;
15643;SDS011;7921;43.586;1.408;2022-07-10T13:47:58;1.05;;;0.95;;
15643;SDS011;7921;43.586;1.408;2022-07-10T13:50:24;1.50;;;0.93;;
15643;SDS011;7921;43.586;1.408;2022-07-10T13:52:50;0.93;;;0.90;;
15643;SDS011;7921;43.586;1.408;2022-07-10T13:55:16;2.33;;;1.00;;
15643;SDS011;7921;43.586;1.408;2022-07-10T13:57:41;1.52;;;0.88;;
15643;SDS011;7921;43.586;1.408;2022-07-10T14:00:07;1.80;;;0.80;;
15643;SDS011;7921;43.586;1.408;2022-07-10T14:02:33;1.10;;;1.00;;
15643;SDS011;7921;43.586;1.408;2022-07-10T14:04:59;1.00;;;0.93;;
15643;SDS011;7921;43.586;1.408;2022-07-10T14:07:24;0.90;;;0.80;;
15643;SDS011;7921;43.586;1.408;2022-07-10T14:09:50;1.95;;;0.90;;
15643;SDS011;7921;43.586;1.408;2022-07-10T14:12:15;1.90;;;0.90;;
15643;SDS011;7921;43.586;1.408;2022-07-10T14:14:41;0.80;;;0.80;;
15643;SDS011;7921;43.586;1.408;2022-07-10T14:17:07;1.00;;;0.95;;
15643;SDS011;7921;43.586;1.408;2022-07-10T14:19:32;2.45;;;1.02;;
15643;SDS011;7921;43.586;1.408;2022-07-10T14:21:57;1.30;;;1.20;;
15643;SDS011;7921;43.586;1.408;2022-07-10T14:24:24;0.73;;;0.73;;
15643;SDS011;7921;43.586;1.408;2022-07-10T14:26:50;1.20;;;1.08;;
15643;SDS011;7921;43.586;1.408;2022-07-10T14:29:17;0.90;;;0.90;;
15643;SDS011;7921;43.586;1.408;2022-07-10T14:31:42;0.95;;;0.90;;
15643;SDS011;7921;43.586;1.408;2022-07-10T14:34:10;2.17;;;0.98;;
15643;SDS011;7921;43.586;1.408;2022-07-10T14:36:35;3.10;;;1.55;;
15643;SDS011;7921;43.586;1.408;2022-07-10T14:39:01;0.95;;;0.95;;
15643;SDS011;7921;43.586;1.408;2022-07-10T14:41:27;1.55;;;1.45;;
15643;SDS011;7921;43.586;1.408;2022-07-10T14:43:52;2.25;;;1.10;;
15643;SDS011;7921;43.586;1.408;2022-07-10T14:46:18;2.85;;;0.98;;
15643;SDS011;7921;43.586;1.408;2022-07-10T14:48:43;0.80;;;0.80;;
15643;SDS011;7921;43.586;1.408;2022-07-10T14:51:08;0.80;;;0.77;;
15643;SDS011;7921;43.586;1.408;2022-07-10T14:53:34;0.95;;;0.77;;
15643;SDS011;7921;43.586;1.408;2022-07-10T14:56:03;0.75;;;0.75;;
15643;SDS011;7921;43.586;1.408;2022-07-10T14:58:29;0.98;;;0.85;;
15643;SDS011;7921;43.586;1.408;2022-07-10T15:00:55;1.73;;;1.00;;
15643;SDS011;7921;43.586;1.408;2022-07-10T15:03:20;1.60;;;0.73;;
15643;SDS011;7921;43.586;1.408;2022-07-10T15:05:46;0.73;;;0.60;;
15643;SDS011;7921;43.586;1.408;2022-07-10T15:08:11;0.85;;;0.70;;
15643;SDS011;7921;43.586;1.408;2022-07-10T15:10:36;0.80;;;0.80;;
15643;SDS011;7921;43.586;1.408;2022-07-10T15:13:02;0.65;;;0.65;;
15643;SDS011;7921;43.586;1.408;2022-07-10T15:15:30;1.50;;;0.80;;
15643;SDS011;7921;43.586;1.408;2022-07-10T15:17:59;0.80;;;0.80;;
15643;SDS011;7921;43.586;1.408;2022-07-10T15:20:24;0.60;;;0.60;;
15643;SDS011;7921;43.586;1.408;2022-07-10T15:22:50;0.57;;;0.57;;
15643;SDS011;7921;43.586;1.408;2022-07-10T15:25:15;2.08;;;0.80;;
15643;SDS011;7921;43.586;1.408;2022-07-10T15:27:40;2.33;;;2.17;;
15643;SDS011;7921;43.586;1.408;2022-07-10T15:30:07;11.52;;;10.88;;